createdAt,value
2023-02-22T00:01:36.172Z,3.20
2023-02-22T00:04:05.362Z,2.97
2023-02-22T00:06:33.070Z,2.58
2023-02-22T00:09:02.615Z,3.10
2023-02-22T00:11:31.787Z,2.92
2023-02-22T00:13:58.816Z,2.65
2023-02-22T00:16:26.862Z,3.13
2023-02-22T00:18:54.424Z,3.08
2023-02-22T00:21:22.291Z,2.90
2023-02-22T00:23:49.894Z,2.78
2023-02-22T00:26:21.439Z,2.63
2023-02-22T00:28:51.569Z,2.80
2023-02-22T00:31:18.967Z,2.60
2023-02-22T00:33:46.184Z,2.85
2023-02-22T00:36:14.313Z,3.00
2023-02-22T00:38:42.239Z,3.17
2023-02-22T00:41:09.943Z,2.63
2023-02-22T00:43:37.121Z,2.67
2023-02-22T00:46:04.668Z,3.15
2023-02-22T00:48:31.767Z,3.08
2023-02-22T00:50:58.772Z,3.00
2023-02-22T00:53:26.632Z,3.03
2023-02-22T00:55:53.612Z,3.35
2023-02-22T00:58:21.726Z,2.90
2023-02-22T01:00:49.219Z,3.05
2023-02-22T01:03:19.392Z,2.90
2023-02-22T01:05:46.941Z,3.53
2023-02-22T01:08:16.089Z,3.35
2023-02-22T01:10:43.307Z,3.05
2023-02-22T01:13:12.617Z,2.97
2023-02-22T01:15:42.341Z,3.30
2023-02-22T01:18:10.402Z,3.28
2023-02-22T01:20:37.480Z,3.15
2023-02-22T01:23:08.193Z,2.95
2023-02-22T01:25:36.291Z,3.38
2023-02-22T01:28:04.921Z,2.70
2023-02-22T01:30:34.262Z,3.03
2023-02-22T01:33:03.515Z,3.22
2023-02-22T01:35:33.091Z,2.70
2023-02-22T01:38:00.406Z,3.10
2023-02-22T01:40:37.322Z,3.03
2023-02-22T01:43:16.197Z,3.25
2023-02-22T01:45:50.869Z,3.22
2023-02-22T01:51:19.901Z,2.72
2023-02-22T01:53:55.505Z,3.60
2023-02-22T01:56:24.883Z,2.78
2023-02-22T01:58:59.542Z,3.13
2023-02-22T02:03:58.466Z,3.45
2023-02-22T02:06:28.149Z,2.85
2023-02-22T02:09:04.843Z,2.70
2023-02-22T02:11:32.753Z,3.10
2023-02-22T02:14:00.217Z,2.95
2023-02-22T02:16:50.824Z,3.13
2023-02-22T02:19:42.307Z,3.30
2023-02-22T02:22:25.580Z,3.10
2023-02-22T02:25:19.940Z,3.10
2023-02-22T02:27:46.647Z,3.42
2023-02-22T02:30:38.219Z,2.65
2023-02-22T02:33:20.982Z,2.83
2023-02-22T02:36:20.221Z,2.53
2023-02-22T02:39:07.305Z,3.28
2023-02-22T02:41:47.723Z,3.25
2023-02-22T02:44:24.306Z,2.70
2023-02-22T02:47:03.085Z,2.72
2023-02-22T02:49:43.927Z,3.05
2023-02-22T02:52:13.455Z,3.22
2023-02-22T02:54:41.313Z,3.42
2023-02-22T02:57:09.649Z,3.10
2023-02-22T02:59:38.193Z,2.38
2023-02-22T03:02:30.956Z,2.88
2023-02-22T03:05:16.632Z,2.70
2023-02-22T03:07:58.284Z,2.83
2023-02-22T03:10:43.500Z,2.78
2023-02-22T03:13:28.845Z,2.97
2023-02-22T03:16:23.755Z,3.15
2023-02-22T03:19:19.853Z,2.72
2023-02-22T03:21:57.139Z,2.30
2023-02-22T03:24:53.355Z,2.88
2023-02-22T03:27:33.992Z,3.13
2023-02-22T03:30:07.903Z,2.92
2023-02-22T03:32:39.637Z,2.25
2023-02-22T03:35:13.356Z,2.65
2023-02-22T03:37:45.428Z,3.03
2023-02-22T03:40:19.099Z,3.35
2023-02-22T03:42:53.902Z,2.33
2023-02-22T03:45:24.691Z,3.00
2023-02-22T03:48:01.076Z,3.03
2023-02-22T03:50:35.877Z,3.10
2023-02-22T03:55:31.660Z,3.20
2023-02-22T03:58:01.160Z,3.13
2023-02-22T04:00:30.900Z,3.08
2023-02-22T04:02:58.187Z,3.00
2023-02-22T04:05:26.080Z,2.80
2023-02-22T04:07:54.031Z,3.15
2023-02-22T04:10:21.275Z,2.97
2023-02-22T04:12:48.848Z,3.35
2023-02-22T04:15:20.416Z,3.10
2023-02-22T04:17:47.154Z,2.95
2023-02-22T04:20:14.543Z,3.30
2023-02-22T04:22:41.592Z,3.10
2023-02-22T04:25:08.668Z,3.05
2023-02-22T04:27:35.409Z,3.20
2023-02-22T04:30:02.621Z,3.25
2023-02-22T04:32:29.851Z,2.97
2023-02-22T04:34:56.840Z,3.22
2023-02-22T04:37:23.724Z,3.40
2023-02-22T04:39:51.252Z,3.53
2023-02-22T04:42:18.655Z,3.25
2023-02-22T04:44:45.503Z,2.90
2023-02-22T04:47:12.564Z,3.13
2023-02-22T04:49:39.455Z,3.60
2023-02-22T04:52:06.242Z,3.05
2023-02-22T04:54:33.192Z,3.03
2023-02-22T04:57:00.183Z,3.30
2023-02-22T04:59:27.042Z,3.60
2023-02-22T05:01:54.221Z,3.35
2023-02-22T05:04:22.059Z,3.90
2023-02-22T05:06:48.796Z,3.40
2023-02-22T05:09:15.537Z,3.28
2023-02-22T05:11:42.606Z,3.35
2023-02-22T05:14:09.651Z,3.72
2023-02-22T05:16:36.820Z,3.40
2023-02-22T05:19:04.514Z,4.00
2023-02-22T05:21:31.299Z,3.40
2023-02-22T05:23:57.978Z,3.65
2023-02-22T05:26:24.981Z,3.45
2023-02-22T05:28:52.011Z,3.80
2023-02-22T05:31:19.091Z,4.22
2023-02-22T05:33:47.389Z,3.35
2023-02-22T05:36:14.292Z,3.65
2023-02-22T05:38:43.674Z,3.20
2023-02-22T05:41:12.608Z,3.10
2023-02-22T05:43:40.690Z,3.80
2023-02-22T05:46:07.853Z,4.25
2023-02-22T05:48:34.952Z,3.55
2023-02-22T05:51:01.833Z,3.45
2023-02-22T05:53:28.660Z,3.70
2023-02-22T05:55:55.645Z,3.72
2023-02-22T05:58:22.313Z,3.45
2023-02-22T06:00:49.228Z,3.35
2023-02-22T06:03:16.296Z,3.33
2023-02-22T06:05:43.078Z,3.67
2023-02-22T06:08:10.125Z,3.60
2023-02-22T06:10:37.089Z,3.63
2023-02-22T06:13:05.568Z,3.83
2023-02-22T06:15:33.021Z,3.13
2023-02-22T06:18:00.736Z,3.60
2023-02-22T06:20:29.942Z,3.78
2023-02-22T06:22:59.095Z,3.63
2023-02-22T06:25:28.764Z,3.95
2023-02-22T06:27:55.678Z,3.53
2023-02-22T06:30:24.614Z,3.22
2023-02-22T06:32:51.627Z,3.35
2023-02-22T06:35:19.069Z,3.47
2023-02-22T06:37:46.311Z,3.47
2023-02-22T06:40:14.754Z,2.67
2023-02-22T06:42:41.971Z,3.00
2023-02-22T06:45:09.889Z,3.20
2023-02-22T06:47:41.390Z,3.40
2023-02-22T06:50:18.755Z,2.90
2023-02-22T06:52:45.688Z,3.20
2023-02-22T06:55:12.644Z,2.97
2023-02-22T06:57:40.359Z,3.10
2023-02-22T07:00:08.013Z,2.90
2023-02-22T07:02:35.337Z,3.08
2023-02-22T07:05:02.300Z,3.55
2023-02-22T07:07:30.333Z,2.90
2023-02-22T07:09:57.301Z,3.53
2023-02-22T07:12:24.154Z,3.65
2023-02-22T07:14:55.664Z,3.15
2023-02-22T07:17:22.365Z,3.40
2023-02-22T07:19:49.333Z,2.80
2023-02-22T07:22:17.872Z,3.33
2023-02-22T07:24:44.796Z,3.03
2023-02-22T07:27:11.709Z,3.35
2023-02-22T07:29:38.642Z,2.78
2023-02-22T07:32:05.908Z,3.17
2023-02-22T07:34:32.904Z,3.35
2023-02-22T07:36:59.888Z,2.78
2023-02-22T07:39:27.428Z,2.85
2023-02-22T07:41:54.219Z,2.92
2023-02-22T07:44:21.112Z,2.92
2023-02-22T07:46:50.902Z,3.25
2023-02-22T07:49:18.551Z,3.45
2023-02-22T07:51:45.439Z,2.75
2023-02-22T07:54:12.410Z,2.72
2023-02-22T07:56:47.745Z,3.15
2023-02-22T07:59:15.877Z,3.22
2023-02-22T08:01:42.805Z,2.72
2023-02-22T08:04:09.633Z,2.70
2023-02-22T08:06:36.781Z,3.05
2023-02-22T08:09:03.840Z,3.20
2023-02-22T08:11:30.836Z,2.83
2023-02-22T08:13:57.662Z,3.67
2023-02-22T08:16:24.581Z,3.50
2023-02-22T08:18:51.620Z,3.55
2023-02-22T08:21:18.893Z,3.50
2023-02-22T08:23:47.693Z,3.78
2023-02-22T08:26:16.418Z,3.78
2023-02-22T08:28:43.387Z,4.20
2023-02-22T08:31:10.926Z,3.83
2023-02-22T08:33:38.015Z,4.38
2023-02-22T08:36:05.329Z,4.20
2023-02-22T08:38:35.308Z,4.18
2023-02-22T08:41:02.469Z,4.00
2023-02-22T08:43:29.426Z,4.60
2023-02-22T08:45:57.773Z,4.38
2023-02-22T08:48:24.868Z,3.55
2023-02-22T08:50:52.053Z,4.10
2023-02-22T08:53:19.306Z,3.95
2023-02-22T08:55:46.444Z,4.57
2023-02-22T08:58:13.886Z,4.38
2023-02-22T09:00:44.005Z,3.42
2023-02-22T09:03:14.233Z,3.53
2023-02-22T09:05:43.038Z,3.60
2023-02-22T09:08:10.316Z,4.05
2023-02-22T09:10:37.366Z,3.60
2023-02-22T09:13:04.667Z,3.65
2023-02-22T09:15:32.772Z,3.78
2023-02-22T09:17:59.959Z,3.88
2023-02-22T09:20:27.917Z,3.63
2023-02-22T09:22:55.820Z,3.50
2023-02-22T09:25:23.571Z,3.72
2023-02-22T09:27:52.476Z,3.42
2023-02-22T09:30:23.966Z,3.72
2023-02-22T09:32:56.732Z,3.15
2023-02-22T09:35:29.951Z,3.67
2023-02-22T09:37:58.933Z,3.15
2023-02-22T09:40:30.538Z,3.90
2023-02-22T09:43:37.481Z,3.85
2023-02-22T09:46:23.246Z,3.33
2023-02-22T09:49:05.649Z,3.58
2023-02-22T09:52:10.831Z,3.47
2023-02-22T09:54:37.785Z,3.23
2023-02-22T09:57:08.802Z,3.17
2023-02-22T09:59:48.802Z,3.28
2023-02-22T10:02:35.485Z,2.88
2023-02-22T10:05:12.308Z,3.42
2023-02-22T10:07:51.236Z,3.20
2023-02-22T10:10:21.254Z,3.10
2023-02-22T10:12:57.100Z,3.00
2023-02-22T10:16:05.387Z,3.00
2023-02-22T10:18:32.960Z,2.78
2023-02-22T10:21:14.530Z,2.83
2023-02-22T10:23:47.918Z,3.17
2023-02-22T10:26:26.048Z,2.65
2023-02-22T10:28:55.633Z,2.80
2023-02-22T10:31:28.794Z,2.85
2023-02-22T10:34:12.617Z,2.80
2023-02-22T10:36:39.676Z,2.95
2023-02-22T10:39:30.786Z,3.05
2023-02-22T10:42:08.994Z,3.13
2023-02-22T10:44:38.014Z,3.70
2023-02-22T10:47:08.709Z,3.40
2023-02-22T10:49:40.817Z,3.22
2023-02-22T10:52:26.212Z,2.97
2023-02-22T10:55:01.117Z,3.13
2023-02-22T10:57:36.784Z,3.17
2023-02-22T11:00:29.719Z,3.20
2023-02-22T11:03:01.536Z,2.97
2023-02-22T11:05:39.535Z,3.00
2023-02-22T11:08:28.853Z,3.15
2023-02-22T11:11:00.459Z,3.10
2023-02-22T11:13:40.640Z,3.28
2023-02-22T11:16:39.597Z,2.95
2023-02-22T11:19:18.345Z,3.47
2023-02-22T11:21:45.472Z,4.07
2023-02-22T11:24:15.626Z,3.30
2023-02-22T11:26:52.355Z,3.30
2023-02-22T11:29:34.525Z,3.22
2023-02-22T11:32:21.512Z,3.10
2023-02-22T11:35:03.537Z,3.70
2023-02-22T11:37:36.923Z,3.50
2023-02-22T11:40:22.517Z,3.40
2023-02-22T11:43:14.410Z,3.25
2023-02-22T11:46:02.125Z,3.30
2023-02-22T11:48:32.367Z,3.10
2023-02-22T11:51:14.584Z,3.47
2023-02-22T11:54:01.504Z,3.30
2023-02-22T11:56:45.154Z,3.03
2023-02-22T11:59:30.452Z,3.55
2023-02-22T12:02:34.810Z,3.45
2023-02-22T12:05:31.190Z,3.70
2023-02-22T12:08:26.906Z,3.38
2023-02-22T12:11:15.610Z,3.13
2023-02-22T12:14:05.856Z,3.50
2023-02-22T12:16:44.184Z,3.60
2023-02-22T12:19:31.307Z,3.40
2023-02-22T12:22:02.500Z,3.30
2023-02-22T12:24:37.363Z,3.17
2023-02-22T12:27:12.077Z,3.25
2023-02-22T12:32:24.893Z,3.65
2023-02-22T12:35:05.926Z,3.10
2023-02-22T12:37:39.433Z,3.40
2023-02-22T12:40:18.540Z,3.28
2023-02-22T12:43:23.154Z,2.97
2023-02-22T12:45:57.812Z,3.83
2023-02-22T12:48:54.139Z,3.30
2023-02-22T12:51:47.366Z,3.30
2023-02-22T12:54:32.254Z,3.13
2023-02-22T12:57:11.507Z,3.30
2023-02-22T12:59:49.836Z,3.25
2023-02-22T13:02:52.219Z,2.92
2023-02-22T13:05:20.924Z,3.13
2023-02-22T13:08:11.468Z,3.10
2023-02-22T13:10:47.669Z,3.55
2023-02-22T13:13:55.873Z,3.47
2023-02-22T13:17:06.244Z,3.35
2023-02-22T13:19:38.523Z,3.30
2023-02-22T13:22:33.420Z,3.30
2023-02-22T13:25:12.359Z,2.67
2023-02-22T13:27:47.087Z,3.28
2023-02-22T13:30:22.150Z,3.85
2023-02-22T13:33:21.361Z,3.35
2023-02-22T13:36:13.750Z,2.92
2023-02-22T13:39:29.369Z,3.30
2023-02-22T13:42:05.252Z,4.25
2023-02-22T13:44:44.304Z,3.28
2023-02-22T13:47:17.105Z,3.45
2023-02-22T13:50:16.234Z,3.20
2023-02-22T13:52:45.206Z,4.30
2023-02-22T13:55:30.252Z,3.80
2023-02-22T13:58:06.809Z,3.67
2023-02-22T14:00:52.346Z,3.35
2023-02-22T14:03:24.177Z,3.30
2023-02-22T14:05:52.877Z,3.33
2023-02-22T14:08:19.867Z,3.90
2023-02-22T14:10:50.079Z,3.70
2023-02-22T14:13:22.906Z,3.95
2023-02-22T14:16:04.884Z,3.42
2023-02-22T14:18:36.386Z,3.55
2023-02-22T14:21:22.782Z,3.55
2023-02-22T14:23:52.368Z,3.70
2023-02-22T14:26:33.230Z,3.90
2023-02-22T14:29:16.747Z,3.42
2023-02-22T14:31:43.695Z,3.90
2023-02-22T14:34:16.152Z,3.80
2023-02-22T14:36:58.552Z,3.97
2023-02-22T14:39:38.482Z,3.53
2023-02-22T14:42:18.149Z,4.00
2023-02-22T14:44:54.663Z,3.53
2023-02-22T14:47:54.824Z,3.75
2023-02-22T14:50:45.161Z,4.18
2023-02-22T14:53:28.106Z,3.83
2023-02-22T14:56:02.979Z,4.78
2023-02-22T15:01:33.990Z,3.90
2023-02-22T15:04:27.814Z,4.38
2023-02-22T15:06:57.383Z,4.22
2023-02-22T15:09:29.782Z,3.83
2023-02-22T15:12:04.285Z,4.05
2023-02-22T15:14:38.194Z,4.88
2023-02-22T15:17:17.487Z,2.97
2023-02-22T15:19:46.636Z,3.67
2023-02-22T15:22:35.813Z,3.97
2023-02-22T15:25:06.305Z,3.55
2023-02-22T15:27:37.953Z,3.67
2023-02-22T15:30:17.926Z,3.70
2023-02-22T15:33:01.303Z,3.35
2023-02-22T15:35:32.369Z,2.92
2023-02-22T15:38:06.565Z,3.30
2023-02-22T15:40:34.722Z,3.20
2023-02-22T15:43:09.197Z,3.42
2023-02-22T15:45:43.316Z,3.28
2023-02-22T15:48:11.927Z,3.00
2023-02-22T15:50:39.447Z,3.70
2023-02-22T15:53:25.824Z,3.95
2023-02-22T15:56:00.145Z,3.47
2023-02-22T15:58:30.215Z,4.30
2023-02-22T16:01:04.931Z,3.90
2023-02-22T16:06:35.442Z,3.30
2023-02-22T16:09:09.677Z,3.38
2023-02-22T16:11:45.981Z,3.65
2023-02-22T16:14:31.280Z,3.50
2023-02-22T16:17:39.868Z,3.85
2023-02-22T16:20:13.403Z,4.00
2023-02-22T16:22:46.712Z,4.10
2023-02-22T16:25:16.629Z,3.53
2023-02-22T16:28:06.409Z,3.97
2023-02-22T16:30:38.349Z,3.85
2023-02-22T16:33:16.725Z,4.03
2023-02-22T16:35:52.257Z,3.88
2023-02-22T16:38:21.402Z,3.45
2023-02-22T16:41:02.996Z,3.92
2023-02-22T16:43:34.782Z,3.60
2023-02-22T16:46:03.326Z,3.40
2023-02-22T16:48:38.590Z,3.67
2023-02-22T16:51:24.910Z,3.80
2023-02-22T16:53:54.667Z,3.50
2023-02-22T16:56:30.734Z,3.88
2023-02-22T16:59:00.972Z,3.95
2023-02-22T17:01:27.685Z,3.90
2023-02-22T17:03:54.496Z,4.03
2023-02-22T17:06:21.610Z,3.95
2023-02-22T17:08:52.015Z,3.95
2023-02-22T17:11:19.186Z,4.00
2023-02-22T17:13:47.293Z,3.63
2023-02-22T17:16:15.274Z,3.55
2023-02-22T17:18:42.278Z,4.38
2023-02-22T17:21:11.335Z,3.50
2023-02-22T17:23:38.249Z,3.80
2023-02-22T17:26:05.259Z,3.78
2023-02-22T17:28:32.390Z,4.28
2023-02-22T17:31:01.847Z,4.03
2023-02-22T17:33:33.763Z,4.68
2023-02-22T17:36:02.243Z,4.55
2023-02-22T17:38:30.458Z,4.03
2023-02-22T17:40:59.926Z,3.78
2023-02-22T17:43:30.511Z,4.28
2023-02-22T17:45:57.656Z,4.47
2023-02-22T17:48:24.872Z,4.47
2023-02-22T17:50:52.318Z,4.30
2023-02-22T17:53:22.997Z,4.43
2023-02-22T17:55:50.637Z,3.83
2023-02-22T17:58:18.069Z,4.80
2023-02-22T18:00:47.847Z,4.10
2023-02-22T18:03:21.387Z,4.05
2023-02-22T18:05:50.070Z,3.17
2023-02-22T18:08:17.017Z,3.95
2023-02-22T18:10:44.838Z,3.60
2023-02-22T18:13:19.815Z,3.60
2023-02-22T18:15:47.088Z,3.78
2023-02-22T18:18:15.016Z,3.30
2023-02-22T18:20:44.096Z,3.85
2023-02-22T18:23:17.166Z,4.20
2023-02-22T18:26:03.793Z,4.03
2023-02-22T18:28:35.580Z,4.05
2023-02-22T18:31:10.648Z,3.90
2023-02-22T18:33:37.663Z,4.47
2023-02-22T18:36:05.022Z,3.78
2023-02-22T18:38:32.188Z,4.18
2023-02-22T18:41:04.772Z,4.50
2023-02-22T18:43:34.377Z,4.38
2023-02-22T18:46:18.767Z,4.82
2023-02-22T18:48:47.697Z,3.78
2023-02-22T18:51:17.534Z,5.00
2023-02-22T18:53:47.493Z,5.05
2023-02-22T18:56:22.042Z,5.05
2023-02-22T18:58:56.749Z,4.70
2023-02-22T19:01:23.860Z,4.65
2023-02-22T19:03:52.007Z,4.93
2023-02-22T19:06:21.994Z,5.57
2023-02-22T19:08:50.683Z,5.22
2023-02-22T19:11:23.476Z,4.70
2023-02-22T19:13:54.168Z,5.47
2023-02-22T19:16:23.470Z,5.40
2023-02-22T19:18:52.633Z,4.78
2023-02-22T19:21:20.222Z,4.50
2023-02-22T19:23:48.902Z,4.90
2023-02-22T19:26:27.701Z,4.95
2023-02-22T19:28:57.403Z,4.82
2023-02-22T19:31:31.504Z,4.70
2023-02-22T19:34:11.765Z,5.72
2023-02-22T19:36:46.083Z,4.38
2023-02-22T19:39:14.826Z,4.93
2023-02-22T19:41:42.001Z,5.78
2023-02-22T19:44:09.111Z,4.60
2023-02-22T19:46:36.994Z,4.97
2023-02-22T19:49:04.381Z,5.28
2023-02-22T19:51:31.896Z,5.00
2023-02-22T19:54:05.155Z,4.75
2023-02-22T19:56:35.219Z,5.07
2023-02-22T19:59:14.068Z,5.45
2023-02-22T20:01:44.619Z,5.72
2023-02-22T20:04:18.403Z,4.88
2023-02-22T20:06:46.739Z,5.17
2023-02-22T20:09:20.367Z,4.85
2023-02-22T20:11:48.255Z,5.70
2023-02-22T20:14:23.825Z,5.22
2023-02-22T20:16:51.926Z,5.60
2023-02-22T20:19:19.654Z,5.82
2023-02-22T20:21:46.646Z,5.53
2023-02-22T20:24:18.586Z,5.18
2023-02-22T20:26:46.716Z,5.35
2023-02-22T20:29:15.282Z,4.78
2023-02-22T20:31:43.489Z,6.28
2023-02-22T20:34:11.478Z,4.82
2023-02-22T20:36:40.243Z,4.80
2023-02-22T20:39:16.331Z,5.28
2023-02-22T20:41:45.233Z,5.28
2023-02-22T20:44:14.408Z,4.75
2023-02-22T20:46:43.653Z,5.28
2023-02-22T20:49:14.075Z,4.82
2023-02-22T20:51:42.123Z,4.88
2023-02-22T20:54:12.659Z,4.57
2023-02-22T20:56:44.534Z,4.50
2023-02-22T20:59:14.025Z,4.10
2023-02-22T21:01:41.174Z,4.57
2023-02-22T21:04:12.215Z,4.78
2023-02-22T21:06:40.859Z,4.22
2023-02-22T21:09:12.585Z,4.40
2023-02-22T21:11:40.296Z,4.03
2023-02-22T21:14:07.744Z,4.50
2023-02-22T21:16:37.562Z,3.70
2023-02-22T21:19:07.058Z,4.22
2023-02-22T21:21:35.266Z,4.35
2023-02-22T21:24:02.370Z,3.97
2023-02-22T21:26:33.811Z,4.10
2023-02-22T21:29:04.886Z,4.00
2023-02-22T21:31:33.600Z,3.60
2023-02-22T21:34:01.350Z,4.25
2023-02-22T21:36:29.121Z,3.85
2023-02-22T21:39:10.188Z,4.10
2023-02-22T21:41:39.725Z,3.10
2023-02-22T21:44:07.731Z,3.90
2023-02-22T21:46:34.767Z,4.00
2023-02-22T21:49:01.924Z,3.75
2023-02-22T21:51:31.788Z,3.88
2023-02-22T21:54:03.519Z,3.72
2023-02-22T21:56:34.502Z,3.88
2023-02-22T21:59:08.800Z,4.07
2023-02-22T22:01:39.113Z,3.78
2023-02-22T22:04:06.513Z,3.47
2023-02-22T22:06:34.816Z,3.90
2023-02-22T22:09:04.792Z,3.80
2023-02-22T22:11:31.817Z,3.67
2023-02-22T22:13:59.896Z,3.22
2023-02-22T22:16:30.202Z,3.65
2023-02-22T22:18:57.906Z,2.50
2023-02-22T22:21:25.874Z,3.17
2023-02-22T22:23:57.550Z,2.90
2023-02-22T22:26:25.940Z,3.00
2023-02-22T22:28:56.227Z,3.67
2023-02-22T22:31:26.180Z,3.40
2023-02-22T22:33:54.620Z,3.28
2023-02-22T22:36:23.102Z,3.08
2023-02-22T22:38:52.856Z,3.22
2023-02-22T22:41:22.157Z,3.30
2023-02-22T22:43:49.361Z,3.58
2023-02-22T22:46:18.162Z,3.67
2023-02-22T22:48:47.304Z,3.40
2023-02-22T22:51:21.904Z,3.40
2023-02-22T22:56:19.734Z,3.55
2023-02-22T22:58:52.287Z,3.55
2023-02-22T23:01:27.350Z,3.70
2023-02-22T23:04:02.191Z,3.90
2023-02-22T23:06:33.265Z,3.33
2023-02-22T23:09:11.618Z,3.10
2023-02-22T23:11:45.204Z,3.28
2023-02-22T23:14:15.104Z,3.63
2023-02-22T23:16:43.011Z,3.50
2023-02-22T23:19:10.168Z,3.10
2023-02-22T23:21:38.749Z,3.28
2023-02-22T23:24:07.000Z,2.95
2023-02-22T23:26:36.054Z,3.50
2023-02-22T23:29:04.282Z,3.13
2023-02-22T23:31:33.656Z,2.90
2023-02-22T23:34:00.582Z,3.03
2023-02-22T23:36:27.560Z,3.22
2023-02-22T23:38:54.419Z,3.35
2023-02-22T23:41:22.531Z,2.88
2023-02-22T23:43:49.562Z,2.80
2023-02-22T23:46:20.789Z,2.75
2023-02-22T23:48:53.041Z,2.60
2023-02-22T23:51:25.767Z,2.85
2023-02-22T23:53:55.951Z,2.90
2023-02-22T23:56:26.825Z,2.63
2023-02-22T23:58:57.671Z,2.50
